Time;durP1;ratioP1;P1;durP2;ratioP2;P2;SDS_P1;SDS_P2;PMS_P1;PMS_P2;Temp;Humidity;BMP_temperature;BMP_pressure;BME280_temperature;BME280_humidity;BME280_pressure;Samples;Min_cycle;Max_cycle;Signal;HPM_P1;HPM_P2
2022/10/06 00:00:49;;;;;;;8.82;0.68;;;11.50;99.90;;;;;;4984303;28;20441;-61
2022/10/06 00:03:15;;;;;;;5.15;0.63;;;11.50;99.90;;;;;;4980012;28;20034;-59
2022/10/06 00:05:42;;;;;;;5.65;0.60;;;11.60;99.90;;;;;;4977234;28;20031;-60
2022/10/06 00:08:08;;;;;;;5.72;0.98;;;11.70;99.90;;;;;;4984624;28;20161;-58
2022/10/06 00:10:34;;;;;;;3.42;0.93;;;11.60;99.90;;;;;;4982442;28;20030;-61
2022/10/06 00:13:01;;;;;;;1.98;0.30;;;11.40;99.90;;;;;;4979818;28;20038;-60
2022/10/06 00:15:30;;;;;;;5.15;0.95;;;11.60;99.90;;;;;;4984033;28;20068;-58
2022/10/06 00:17:57;;;;;;;5.45;0.50;;;11.50;99.90;;;;;;4984789;28;20034;-59
2022/10/06 00:20:24;;;;;;;4.75;0.55;;;11.40;99.90;;;;;;4986058;28;20031;-59
2022/10/06 00:22:50;;;;;;;5.43;0.60;;;11.30;99.90;;;;;;4976677;28;20025;-59
2022/10/06 00:25:18;;;;;;;0.85;0.30;;;11.30;99.90;;;;;;4989762;28;20402;-58
2022/10/06 00:27:47;;;;;;;4.82;1.40;;;11.30;99.90;;;;;;4977778;28;20038;-58
2022/10/06 00:30:18;;;;;;;3.75;0.85;;;11.30;99.90;;;;;;4980725;28;20474;-58
2022/10/06 00:32:56;;;;;;;7.15;1.00;;;11.30;99.90;;;;;;4977500;28;20031;-58
2022/10/06 00:35:24;;;;;;;2.05;0.80;;;11.30;99.90;;;;;;4988901;28;20088;-59
2022/10/06 00:37:50;;;;;;;7.32;0.57;;;11.30;99.90;;;;;;4983891;28;20499;-59
2022/10/06 00:40:16;;;;;;;2.08;0.52;;;11.30;99.90;;;;;;4984806;28;20093;-58
2022/10/06 00:42:58;;;;;;;2.15;0.43;;;11.20;99.90;;;;;;4974004;28;20038;-59
2022/10/06 00:45:43;;;;;;;2.50;0.28;;;11.30;99.90;;;;;;4980582;28;20411;-59
2022/10/06 00:48:22;;;;;;;6.25;1.00;;;11.20;99.90;;;;;;4984706;28;20437;-58
2022/10/06 00:50:52;;;;;;;6.07;0.80;;;11.10;99.90;;;;;;4977603;28;20030;-60
2022/10/06 00:53:20;;;;;;;5.10;0.50;;;11.00;99.90;;;;;;4976536;28;20093;-59
2022/10/06 00:55:45;;;;;;;3.58;0.50;;;10.80;99.90;;;;;;4977912;28;20042;-59
2022/10/06 00:58:12;;;;;;;2.72;0.82;;;10.80;99.90;;;;;;4985468;28;20446;-59
2022/10/06 01:00:39;;;;;;;5.18;0.50;;;10.80;99.90;;;;;;4983050;28;20030;-58
2022/10/06 01:03:12;;;;;;;8.65;1.17;;;10.90;99.90;;;;;;4980396;28;20038;-60
2022/10/06 01:05:45;;;;;;;10.07;1.38;;;10.90;99.90;;;;;;4967849;28;20390;-59
2022/10/06 01:08:12;;;;;;;6.72;1.17;;;10.90;99.90;;;;;;4982046;28;20502;-60
2022/10/06 01:10:38;;;;;;;4.40;0.88;;;10.80;99.90;;;;;;4987746;28;20105;-60
2022/10/06 01:13:05;;;;;;;3.03;0.60;;;10.80;99.90;;;;;;4983945;28;20478;-61
2022/10/06 01:15:32;;;;;;;4.05;0.75;;;10.70;99.90;;;;;;4978239;28;20070;-59
2022/10/06 01:18:06;;;;;;;9.85;0.90;;;10.70;99.90;;;;;;4988378;28;20121;-59
2022/10/06 01:20:35;;;;;;;7.60;1.83;;;10.70;99.90;;;;;;4989170;28;20061;-58
2022/10/06 01:23:04;;;;;;;2.22;0.50;;;10.50;99.90;;;;;;4962918;28;20146;-58
2022/10/06 01:25:31;;;;;;;3.75;0.38;;;10.40;99.90;;;;;;4978825;28;20391;-58
2022/10/06 01:27:59;;;;;;;1.48;0.45;;;10.50;99.90;;;;;;4975674;28;20027;-60
2022/10/06 01:30:53;;;;;;;2.45;0.85;;;10.40;99.90;;;;;;4983379;28;20034;-58
2022/10/06 01:33:19;;;;;;;4.75;0.40;;;10.50;99.90;;;;;;4976361;28;20041;-58
2022/10/06 01:35:48;;;;;;;4.95;0.45;;;10.50;99.90;;;;;;4979944;28;20038;-59
2022/10/06 01:38:15;;;;;;;5.40;0.70;;;10.40;99.90;;;;;;4982103;28;20038;-59
2022/10/06 01:40:41;;;;;;;7.22;0.52;;;10.40;99.90;;;;;;4975478;28;20030;-59
2022/10/06 01:43:07;;;;;;;4.18;0.47;;;10.30;99.90;;;;;;4972338;28;20023;-59
2022/10/06 01:45:33;;;;;;;3.20;0.80;;;10.60;99.90;;;;;;4981660;28;20383;-59
2022/10/06 01:47:59;;;;;;;4.90;1.00;;;10.30;99.90;;;;;;4979575;28;20030;-59
2022/10/06 01:50:24;;;;;;;3.67;0.82;;;10.30;99.90;;;;;;4987302;28;20066;-59
2022/10/06 01:52:50;;;;;;;3.08;0.60;;;10.20;99.90;;;;;;4979422;28;20510;-60
2022/10/06 01:55:16;;;;;;;6.22;0.82;;;10.20;99.90;;;;;;4988291;28;20113;-60
2022/10/06 01:57:42;;;;;;;5.00;0.82;;;10.10;99.90;;;;;;4981366;28;20038;-60
2022/10/06 02:00:09;;;;;;;2.38;0.65;;;10.00;99.90;;;;;;4988598;28;20117;-60
2022/10/06 02:02:35;;;;;;;4.30;1.23;;;10.00;99.90;;;;;;4973488;28;20023;-60
2022/10/06 02:05:03;;;;;;;13.02;0.85;;;9.90;99.90;;;;;;4972882;28;20023;-60
2022/10/06 02:07:28;;;;;;;3.90;0.32;;;10.00;99.90;;;;;;4977756;28;20046;-59
2022/10/06 02:09:54;;;;;;;3.83;1.58;;;10.10;99.90;;;;;;4977968;28;20395;-60
2022/10/06 02:12:20;;;;;;;1.15;0.22;;;10.10;99.90;;;;;;4976103;28;20445;-60
2022/10/06 02:14:45;;;;;;;6.90;0.57;;;10.20;99.90;;;;;;4984645;28;20038;-59
2022/10/06 02:17:11;;;;;;;7.05;1.35;;;10.00;99.90;;;;;;4984424;28;20498;-59
2022/10/06 02:19:37;;;;;;;2.15;0.80;;;10.00;99.90;;;;;;4991586;28;20371;-59
2022/10/06 02:22:03;;;;;;;8.80;0.90;;;9.90;99.90;;;;;;4990820;28;20023;-60
2022/10/06 02:24:29;;;;;;;3.58;1.33;;;9.90;99.90;;;;;;4985140;28;20026;-59
2022/10/06 02:26:54;;;;;;;10.10;0.80;;;10.00;99.90;;;;;;4976813;28;20031;-59
2022/10/06 02:29:20;;;;;;;5.78;0.82;;;9.90;99.90;;;;;;4989662;28;20030;-59
2022/10/06 02:31:47;;;;;;;3.08;0.73;;;9.90;99.90;;;;;;4977191;28;20030;-59
2022/10/06 02:34:12;;;;;;;6.93;0.93;;;9.80;99.90;;;;;;4982140;28;20379;-60
2022/10/06 02:36:38;;;;;;;2.97;0.50;;;9.80;99.90;;;;;;4979291;28;20030;-60
2022/10/06 02:39:04;;;;;;;2.22;0.52;;;9.70;99.90;;;;;;4981918;28;20030;-59
2022/10/06 02:41:30;;;;;;;8.18;0.90;;;9.70;99.90;;;;;;4979999;28;20018;-59
2022/10/06 02:43:56;;;;;;;6.97;0.80;;;9.60;99.90;;;;;;4980189;28;20041;-61
2022/10/06 02:46:22;;;;;;;4.20;0.98;;;9.60;99.90;;;;;;4991631;28;20026;-60
2022/10/06 02:48:49;;;;;;;4.70;0.50;;;9.40;99.90;;;;;;4981823;28;20398;-60
2022/10/06 02:51:17;;;;;;;9.43;1.45;;;9.60;99.90;;;;;;4973938;28;20549;-60
2022/10/06 02:53:44;;;;;;;5.43;1.05;;;9.50;99.90;;;;;;4975021;28;20082;-60
2022/10/06 02:56:19;;;;;;;3.78;0.57;;;9.50;99.90;;;;;;4983057;28;20034;-59
2022/10/06 02:58:46;;;;;;;5.15;0.55;;;9.40;99.90;;;;;;4968100;28;20030;-59
2022/10/06 03:01:17;;;;;;;6.35;0.60;;;10.10;99.90;;;;;;4986562;28;20034;-59
2022/10/06 03:03:45;;;;;;;5.18;1.38;;;9.30;99.90;;;;;;4980654;28;20039;-60
2022/10/06 03:06:21;;;;;;;3.28;0.73;;;9.40;99.90;;;;;;4980264;28;20030;-59
2022/10/06 03:08:53;;;;;;;5.53;1.65;;;9.40;99.90;;;;;;4970943;28;20035;-60
2022/10/06 03:11:24;;;;;;;3.33;0.68;;;9.40;99.90;;;;;;4979972;28;20047;-59
2022/10/06 03:13:50;;;;;;;3.45;0.63;;;9.50;99.90;;;;;;4981725;28;20034;-60
2022/10/06 03:16:22;;;;;;;11.38;2.33;;;9.50;99.90;;;;;;4985947;28;20034;-60
2022/10/06 03:18:49;;;;;;;9.48;1.08;;;9.50;99.90;;;;;;4982936;28;20035;-59
2022/10/06 03:21:16;;;;;;;0.40;0.17;;;9.40;99.90;;;;;;4986352;28;20050;-59
2022/10/06 03:23:43;;;;;;;6.32;0.65;;;9.40;99.90;;;;;;4975864;28;20394;-59
2022/10/06 03:26:09;;;;;;;6.03;1.48;;;9.40;99.90;;;;;;4979878;28;20061;-59
2022/10/06 03:28:35;;;;;;;5.40;1.23;;;9.30;99.90;;;;;;4986763;28;20038;-59
2022/10/06 03:31:03;;;;;;;5.88;1.58;;;9.20;99.90;;;;;;4983851;28;20501;-59
2022/10/06 03:33:29;;;;;;;7.07;0.63;;;9.20;99.90;;;;;;4992108;28;20037;-58
2022/10/06 03:36:00;;;;;;;6.38;0.77;;;9.20;99.90;;;;;;4982215;28;20031;-60
2022/10/06 03:38:26;;;;;;;7.88;1.05;;;9.20;99.90;;;;;;4982760;28;20442;-60
2022/10/06 03:40:52;;;;;;;3.38;0.50;;;9.70;99.90;;;;;;4982851;28;20034;-59
2022/10/06 03:43:17;;;;;;;5.47;0.65;;;9.10;99.90;;;;;;4989831;28;20041;-61
2022/10/06 03:45:43;;;;;;;5.85;0.60;;;9.10;99.90;;;;;;4984009;28;20054;-60
2022/10/06 03:48:09;;;;;;;2.20;1.20;;;8.90;99.90;;;;;;4984439;28;20420;-59
2022/10/06 03:50:35;;;;;;;0.77;0.40;;;8.80;99.90;;;;;;4983912;28;20076;-59
2022/10/06 03:53:00;;;;;;;3.38;0.40;;;8.70;99.90;;;;;;4979312;28;20125;-59
2022/10/06 03:55:26;;;;;;;4.57;0.43;;;8.90;99.90;;;;;;4986320;28;20019;-60
2022/10/06 03:57:51;;;;;;;6.45;0.80;;;8.80;99.90;;;;;;4986506;28;20045;-59
2022/10/06 04:00:17;;;;;;;4.22;0.95;;;8.80;99.90;;;;;;4986950;28;20019;-60
2022/10/06 04:02:43;;;;;;;9.50;1.05;;;8.90;99.90;;;;;;4989768;28;20027;-60
2022/10/06 04:05:08;;;;;;;1.90;0.40;;;8.80;99.90;;;;;;4983347;28;20070;-58
2022/10/06 04:07:34;;;;;;;2.80;0.30;;;8.80;99.90;;;;;;4985483;28;20117;-59
2022/10/06 04:09:59;;;;;;;4.25;0.40;;;8.80;99.90;;;;;;4969371;28;20042;-59
2022/10/06 04:12:25;;;;;;;4.55;0.63;;;8.80;99.90;;;;;;4973305;28;20059;-60
2022/10/06 04:14:51;;;;;;;4.38;0.82;;;8.70;99.90;;;;;;4970017;28;20114;-59
2022/10/06 04:17:16;;;;;;;0.82;0.50;;;8.80;99.90;;;;;;4978755;28;20034;-59
2022/10/06 04:19:42;;;;;;;2.33;0.60;;;8.90;99.90;;;;;;4972095;28;20395;-59
2022/10/06 04:22:07;;;;;;;2.53;0.68;;;9.90;99.90;;;;;;4975803;28;20062;-59
2022/10/06 04:24:33;;;;;;;3.85;0.50;;;9.30;99.90;;;;;;4978867;28;20116;-59
2022/10/06 04:27:26;;;;;;;4.05;0.52;;;9.00;99.90;;;;;;4977354;28;20060;-58
2022/10/06 04:29:44;;;;;;;5.38;0.73;;;9.10;99.90;;;;;;4972410;28;20035;-60
2022/10/06 04:32:10;;;;;;;8.55;0.63;;;9.60;99.90;;;;;;4984291;28;20030;-58
2022/10/06 04:34:36;;;;;;;4.45;0.75;;;9.00;99.90;;;;;;4972154;28;20038;-59
2022/10/06 04:37:02;;;;;;;7.40;1.30;;;9.00;99.90;;;;;;4971805;28;20039;-60
2022/10/06 04:39:28;;;;;;;6.50;0.70;;;9.10;99.90;;;;;;4979894;28;20034;-59
2022/10/06 04:41:54;;;;;;;4.72;0.65;;;9.20;99.90;;;;;;4963696;28;20483;-60
2022/10/06 04:44:19;;;;;;;5.60;0.52;;;10.00;99.90;;;;;;4982179;28;20086;-60
2022/10/06 04:46:45;;;;;;;4.45;1.02;;;9.20;99.90;;;;;;4968812;28;20053;-61
2022/10/06 04:49:11;;;;;;;4.03;0.50;;;9.20;99.90;;;;;;4963983;28;20054;-59
2022/10/06 04:51:37;;;;;;;6.50;0.68;;;9.10;99.90;;;;;;4979886;28;20026;-59
2022/10/06 04:54:02;;;;;;;3.75;0.45;;;9.20;99.90;;;;;;4975464;28;20027;-60
2022/10/06 04:56:29;;;;;;;5.80;0.60;;;9.10;99.90;;;;;;4986582;28;20494;-60
2022/10/06 04:58:56;;;;;;;7.55;0.85;;;9.80;99.90;;;;;;4977303;28;20089;-60
2022/10/06 05:01:23;;;;;;;6.07;0.95;;;9.70;99.90;;;;;;4975135;28;20027;-59
2022/10/06 05:03:51;;;;;;;9.85;0.70;;;9.00;99.90;;;;;;4978884;28;20031;-59
2022/10/06 05:06:19;;;;;;;4.18;1.63;;;8.80;99.90;;;;;;4970929;28;20030;-59
2022/10/06 05:08:50;;;;;;;8.45;0.68;;;8.60;99.90;;;;;;4988441;28;20018;-62
2022/10/06 05:11:17;;;;;;;8.90;0.50;;;8.40;99.90;;;;;;4982782;28;20463;-60
2022/10/06 05:13:43;;;;;;;7.57;0.77;;;8.30;99.90;;;;;;4975993;28;20030;-60
2022/10/06 05:16:13;;;;;;;5.75;0.88;;;8.50;99.90;;;;;;4973444;28;20077;-59
2022/10/06 05:18:39;;;;;;;7.25;2.30;;;8.60;99.90;;;;;;4983963;28;20049;-60
2022/10/06 05:21:14;;;;;;;3.63;1.40;;;8.50;99.90;;;;;;4978248;28;20026;-59
2022/10/06 05:23:41;;;;;;;2.22;0.40;;;8.60;99.90;;;;;;4980505;28;20375;-59
2022/10/06 05:26:09;;;;;;;7.28;1.15;;;8.80;99.90;;;;;;4986251;28;20039;-60
2022/10/06 05:28:35;;;;;;;6.57;0.98;;;8.80;99.90;;;;;;4982407;28;20023;-60
2022/10/06 05:31:03;;;;;;;4.47;0.43;;;8.90;99.90;;;;;;4978771;28;20034;-60
2022/10/06 05:33:31;;;;;;;5.68;1.08;;;8.90;99.90;;;;;;4972519;28;20038;-58
2022/10/06 05:35:59;;;;;;;7.97;0.77;;;8.90;99.90;;;;;;4981206;28;20505;-59
2022/10/06 05:38:26;;;;;;;3.83;0.70;;;9.10;99.90;;;;;;4980472;28;20031;-59
2022/10/06 05:41:13;;;;;;;2.80;0.52;;;9.00;99.90;;;;;;4973944;28;20042;-59
2022/10/06 05:43:39;;;;;;;4.72;0.50;;;9.00;99.90;;;;;;4977750;28;20082;-60
2022/10/06 05:46:11;;;;;;;2.85;1.30;;;9.00;99.90;;;;;;4975275;28;20106;-60
2022/10/06 05:48:37;;;;;;;1.70;0.65;;;9.00;99.90;;;;;;4972534;28;20113;-60
2022/10/06 05:51:05;;;;;;;3.13;0.57;;;8.90;99.90;;;;;;4989811;28;20105;-60
2022/10/06 05:53:32;;;;;;;17.25;1.13;;;8.90;99.90;;;;;;4983976;28;20049;-61
2022/10/06 05:56:11;;;;;;;1.90;0.80;;;8.90;99.90;;;;;;4969958;28;20031;-61
2022/10/06 05:58:39;;;;;;;4.13;1.00;;;8.90;99.90;;;;;;4981604;28;20533;-60
2022/10/06 06:01:18;;;;;;;4.25;0.70;;;8.90;99.90;;;;;;4980234;28;20031;-59
2022/10/06 06:04:05;;;;;;;6.18;0.88;;;9.00;99.90;;;;;;4971189;28;20053;-59
2022/10/06 06:06:37;;;;;;;6.70;0.95;;;9.00;99.90;;;;;;4981781;28;20026;-60
2022/10/06 06:09:10;;;;;;;5.07;0.75;;;9.00;99.90;;;;;;4972780;28;20030;-60
2022/10/06 06:11:39;;;;;;;2.38;1.02;;;9.00;99.90;;;;;;4978562;28;20035;-59
2022/10/06 06:14:11;;;;;;;5.28;0.80;;;9.10;99.90;;;;;;4970139;28;20034;-60
2022/10/06 06:16:39;;;;;;;8.18;1.10;;;9.80;99.90;;;;;;4971795;28;20614;-60
2022/10/06 06:19:06;;;;;;;9.18;1.13;;;9.20;99.90;;;;;;4985928;28;20057;-59
2022/10/06 06:21:32;;;;;;;3.67;1.50;;;9.30;99.90;;;;;;4959805;28;20065;-59
2022/10/06 06:23:58;;;;;;;3.85;0.90;;;9.20;99.90;;;;;;4964131;28;20035;-60
2022/10/06 06:26:26;;;;;;;9.48;1.05;;;9.30;99.90;;;;;;4975213;28;20118;-59
2022/10/06 06:28:55;;;;;;;3.08;0.82;;;9.30;99.90;;;;;;4967644;28;20157;-59
2022/10/06 06:31:26;;;;;;;6.65;1.58;;;9.40;99.90;;;;;;4971786;28;20147;-58
2022/10/06 06:33:53;;;;;;;6.70;1.00;;;9.50;99.90;;;;;;4969459;28;20069;-60
2022/10/06 06:36:24;;;;;;;11.80;1.13;;;9.60;99.90;;;;;;4974899;28;20027;-59
2022/10/06 06:38:52;;;;;;;4.80;0.85;;;9.60;99.90;;;;;;4972614;28;20049;-60
2022/10/06 06:41:25;;;;;;;8.15;1.52;;;9.60;99.90;;;;;;4966892;28;20395;-60
2022/10/06 06:43:51;;;;;;;2.70;0.63;;;9.60;99.90;;;;;;4971488;28;20491;-59
2022/10/06 06:46:20;;;;;;;6.20;2.08;;;9.80;99.90;;;;;;4977676;28;20061;-63
2022/10/06 06:48:46;;;;;;;5.47;0.90;;;9.70;99.90;;;;;;4975878;28;20088;-60
2022/10/06 06:51:13;;;;;;;4.43;0.60;;;9.60;99.90;;;;;;4976349;28;20039;-58
2022/10/06 06:53:39;;;;;;;5.03;1.27;;;9.80;99.90;;;;;;4974691;28;20035;-60
2022/10/06 06:56:07;;;;;;;1.58;0.98;;;9.70;99.90;;;;;;4982026;28;20074;-59
2022/10/06 06:58:33;;;;;;;4.75;0.60;;;9.70;99.90;;;;;;4990378;28;20410;-59
2022/10/06 07:01:12;;;;;;;8.38;0.95;;;9.70;99.90;;;;;;4972041;28;20027;-59
2022/10/06 07:03:39;;;;;;;4.75;1.17;;;9.70;99.90;;;;;;4974094;28;20112;-59
2022/10/06 07:06:10;;;;;;;8.15;1.15;;;9.70;99.90;;;;;;4981471;28;20399;-59
2022/10/06 07:08:38;;;;;;;4.00;0.70;;;9.70;99.90;;;;;;4987158;28;20129;-60
2022/10/06 07:11:14;;;;;;;5.00;1.02;;;10.00;99.90;;;;;;4976648;28;20039;-62
2022/10/06 07:13:41;;;;;;;2.67;1.02;;;9.80;99.90;;;;;;4980722;28;20026;-59
2022/10/06 07:27:06;;;;;;;4.22;0.80;;;10.20;99.90;;;;;;4979236;28;20036;-58
2022/10/06 07:29:31;;;;;;;6.90;1.13;;;10.20;99.90;;;;;;4984896;28;20030;-59
2022/10/06 07:31:57;;;;;;;2.10;0.68;;;10.30;99.90;;;;;;4970417;28;20486;-61
2022/10/06 07:34:22;;;;;;;5.35;1.05;;;10.30;99.90;;;;;;4972852;28;20421;-59
2022/10/06 07:36:52;;;;;;;5.07;1.30;;;10.30;99.90;;;;;;4968044;28;20081;-60
2022/10/06 07:39:18;;;;;;;8.07;1.58;;;10.40;99.90;;;;;;4982456;28;20047;-59
2022/10/06 07:41:44;;;;;;;3.25;0.88;;;10.40;99.90;;;;;;4973748;28;20030;-59
2022/10/06 07:44:10;;;;;;;4.50;1.23;;;10.40;99.90;;;;;;4971029;28;20395;-58
2022/10/06 07:46:35;;;;;;;5.65;1.77;;;10.50;99.90;;;;;;4979340;28;20043;-59
2022/10/06 07:49:01;;;;;;;5.43;1.42;;;10.60;99.90;;;;;;4975527;28;20023;-60
2022/10/06 07:51:27;;;;;;;6.68;1.45;;;10.60;99.90;;;;;;4975249;28;20035;-59
2022/10/06 07:53:53;;;;;;;11.77;1.90;;;10.70;99.90;;;;;;4967384;28;20046;-58
2022/10/06 07:56:19;;;;;;;8.35;1.35;;;10.80;99.90;;;;;;4978846;28;20031;-60
2022/10/06 07:58:50;;;;;;;5.05;1.85;;;10.90;99.90;;;;;;4976050;28;20042;-59
2022/10/06 08:01:17;;;;;;;3.97;1.23;;;11.00;99.90;;;;;;4972731;28;20035;-59
2022/10/06 08:03:47;;;;;;;4.07;0.82;;;11.10;99.90;;;;;;4970861;28;20110;-59
2022/10/06 08:06:15;;;;;;;3.50;0.70;;;11.20;99.90;;;;;;4974926;28;20039;-59
2022/10/06 08:08:43;;;;;;;2.58;0.55;;;11.40;99.90;;;;;;4967289;28;20038;-60
2022/10/06 08:11:09;;;;;;;11.95;0.85;;;11.50;99.90;;;;;;4967266;28;20027;-60
2022/10/06 08:13:41;;;;;;;3.47;0.60;;;11.60;99.90;;;;;;4956893;28;20030;-60
2022/10/06 08:16:15;;;;;;;6.68;0.75;;;11.70;99.90;;;;;;4965604;28;20059;-60
2022/10/06 08:18:41;;;;;;;5.72;1.48;;;11.90;99.90;;;;;;4966903;28;20054;-58
2022/10/06 08:21:12;;;;;;;9.60;1.38;;;11.90;99.90;;;;;;4969741;28;20031;-61
2022/10/06 08:23:41;;;;;;;3.85;0.90;;;12.10;99.90;;;;;;4967958;28;20057;-59
2022/10/06 08:26:06;;;;;;;5.03;1.05;;;12.20;99.90;;;;;;4968976;28;20039;-59
2022/10/06 08:28:34;;;;;;;5.07;0.60;;;12.20;99.90;;;;;;4973116;28;20435;-60
2022/10/06 08:31:04;;;;;;;2.70;0.65;;;12.30;99.90;;;;;;4966651;28;20106;-59
2022/10/06 08:33:30;;;;;;;8.82;1.02;;;12.60;99.90;;;;;;4969794;28;20027;-58
2022/10/06 08:36:02;;;;;;;6.78;1.08;;;12.70;99.90;;;;;;4970439;28;20037;-59
2022/10/06 08:38:28;;;;;;;4.82;1.60;;;12.70;99.90;;;;;;4975562;28;20097;-59
2022/10/06 08:40:53;;;;;;;5.18;0.73;;;12.90;99.90;;;;;;4968006;28;20062;-59
2022/10/06 08:43:23;;;;;;;7.22;1.40;;;13.00;99.90;;;;;;4967708;28;20475;-59
2022/10/06 08:45:58;;;;;;;5.43;0.75;;;13.00;99.90;;;;;;4967114;28;20423;-59
2022/10/06 08:48:28;;;;;;;5.13;0.60;;;13.10;99.90;;;;;;4968328;28;20030;-59
2022/10/06 08:51:17;;;;;;;3.95;0.60;;;13.20;99.90;;;;;;4970393;28;20056;-59
2022/10/06 08:54:07;;;;;;;5.55;1.80;;;13.40;99.90;;;;;;4967794;28;20041;-59
2022/10/06 08:56:44;;;;;;;10.63;1.00;;;13.50;99.90;;;;;;4969950;28;20015;-60
2022/10/06 08:59:09;;;;;;;4.63;0.77;;;13.60;99.90;;;;;;4965962;28;20058;-60
2022/10/06 09:01:43;;;;;;;7.88;0.57;;;13.60;99.90;;;;;;4970296;28;20069;-60
2022/10/06 09:04:21;;;;;;;3.30;0.70;;;13.70;99.90;;;;;;4973110;28;20049;-59
2022/10/06 09:07:05;;;;;;;5.32;1.00;;;13.80;99.90;;;;;;4971144;28;20069;-60
2022/10/06 09:10:08;;;;;;;8.95;1.05;;;13.90;99.90;;;;;;4970789;28;20468;-60
2022/10/06 09:12:44;;;;;;;3.65;0.60;;;14.00;99.90;;;;;;4968381;28;20038;-58
2022/10/06 09:15:30;;;;;;;6.18;0.50;;;14.10;99.90;;;;;;4967819;28;20030;-59
2022/10/06 09:18:47;;;;;;;10.38;1.00;;;14.30;99.90;;;;;;4972106;28;20031;-60
2022/10/06 09:21:16;;;;;;;9.30;0.93;;;14.40;99.90;;;;;;4965931;28;20042;-59
2022/10/06 09:23:47;;;;;;;6.20;1.20;;;14.40;99.90;;;;;;4966473;28;20070;-60
2022/10/06 09:26:16;;;;;;;6.22;0.93;;;14.40;99.90;;;;;;4964805;28;20042;-58
2022/10/06 09:28:45;;;;;;;2.72;0.80;;;14.40;99.90;;;;;;4962967;28;20027;-58
2022/10/06 09:31:17;;;;;;;8.85;1.15;;;14.70;99.90;;;;;;4961160;28;20031;-58
2022/10/06 09:33:43;;;;;;;5.93;1.20;;;14.70;99.90;;;;;;4967626;28;20042;-58
2022/10/06 09:36:11;;;;;;;6.95;2.63;;;14.80;99.90;;;;;;4957294;28;20032;-58
2022/10/06 09:38:46;;;;;;;5.95;0.68;;;14.90;99.90;;;;;;4966784;28;20054;-60
2022/10/06 09:41:12;;;;;;;12.48;1.88;;;14.90;99.90;;;;;;4968415;28;20089;-58
2022/10/06 09:43:39;;;;;;;8.02;1.02;;;14.90;99.90;;;;;;4974032;28;20031;-58
2022/10/06 09:46:31;;;;;;;5.70;0.90;;;15.00;99.90;;;;;;4964337;28;20146;-58
2022/10/06 09:49:16;;;;;;;5.35;1.15;;;15.10;99.90;;;;;;4961233;28;20105;-58
2022/10/06 09:52:17;;;;;;;4.13;0.65;;;15.20;99.90;;;;;;4971425;28;20522;-60
2022/10/06 09:54:43;;;;;;;5.95;1.40;;;15.20;99.90;;;;;;4954657;28;20034;-59
2022/10/06 09:57:20;;;;;;;5.35;0.70;;;15.20;99.90;;;;;;4974464;28;20128;-59
2022/10/06 09:59:47;;;;;;;5.80;1.27;;;15.30;99.90;;;;;;4964928;28;20066;-59
2022/10/06 10:02:35;;;;;;;3.05;0.70;;;15.40;99.90;;;;;;4974842;28;20022;-58
2022/10/06 10:05:05;;;;;;;5.65;1.55;;;15.50;99.90;;;;;;4967492;28;20117;-58
2022/10/06 10:07:34;;;;;;;8.77;1.05;;;15.50;99.90;;;;;;4969425;28;20074;-60
2022/10/06 10:10:22;;;;;;;6.28;1.10;;;15.50;99.90;;;;;;4972709;28;20086;-59
2022/10/06 10:12:53;;;;;;;3.72;1.02;;;15.60;99.90;;;;;;4970727;28;20471;-59
2022/10/06 10:15:19;;;;;;;9.67;0.80;;;15.60;99.90;;;;;;4974926;28;20026;-59
2022/10/06 10:18:03;;;;;;;6.43;0.47;;;15.70;99.90;;;;;;4962382;28;20042;-59
2022/10/06 10:20:38;;;;;;;4.63;0.95;;;15.70;99.90;;;;;;4969452;28;20395;-59
2022/10/06 10:23:22;;;;;;;10.15;1.23;;;15.80;99.90;;;;;;4974856;28;20035;-59
2022/10/06 10:26:12;;;;;;;11.65;2.28;;;15.90;99.90;;;;;;4968776;28;20038;-59
2022/10/06 10:29:04;;;;;;;6.28;1.10;;;16.00;99.90;;;;;;4975415;28;20037;-58
2022/10/06 10:31:41;;;;;;;3.25;0.70;;;15.90;99.90;;;;;;4967257;28;20031;-59
2022/10/06 10:34:46;;;;;;;5.93;1.00;;;16.00;99.90;;;;;;4970152;28;20383;-59
2022/10/06 10:37:23;;;;;;;5.38;1.02;;;16.00;99.90;;;;;;4968774;28;20035;-60
2022/10/06 10:39:55;;;;;;;3.83;0.75;;;16.10;99.90;;;;;;4966510;28;20030;-59
2022/10/06 10:42:32;;;;;;;6.95;1.15;;;16.20;99.90;;;;;;4970374;28;20042;-59
2022/10/06 10:45:04;;;;;;;4.15;0.85;;;16.30;99.90;;;;;;4971909;28;20078;-59
2022/10/06 10:47:37;;;;;;;8.60;0.82;;;16.30;99.90;;;;;;4970259;28;20475;-59
2022/10/06 10:50:33;;;;;;;9.38;1.25;;;16.40;99.90;;;;;;4968955;28;20026;-60
2022/10/06 10:53:28;;;;;;;3.22;1.35;;;16.40;99.90;;;;;;4970638;28;20039;-59
2022/10/06 10:55:55;;;;;;;4.07;0.80;;;16.60;99.90;;;;;;4965458;28;20043;-59
2022/10/06 10:58:35;;;;;;;5.05;1.05;;;16.70;99.90;;;;;;4972400;28;20057;-60
2022/10/06 11:01:32;;;;;;;3.85;0.70;;;16.80;99.90;;;;;;4967057;28;20145;-59
2022/10/06 11:03:59;;;;;;;3.40;0.50;;;17.10;99.90;;;;;;4969774;28;20038;-59
2022/10/06 11:06:43;;;;;;;10.80;0.95;;;17.50;99.90;;;;;;4965578;28;20035;-58
2022/10/06 11:09:14;;;;;;;5.18;0.82;;;17.80;99.90;;;;;;4972878;28;20031;-58
2022/10/06 11:11:58;;;;;;;2.42;0.80;;;18.10;99.90;;;;;;4975758;28;20038;-59
2022/10/06 11:14:47;;;;;;;3.20;1.15;;;18.60;99.90;;;;;;4971586;28;20027;-59
2022/10/06 11:17:39;;;;;;;1.67;0.38;;;19.20;99.90;;;;;;4973848;28;20495;-59
2022/10/06 11:20:28;;;;;;;11.73;0.85;;;18.80;99.90;;;;;;4972743;28;20081;-58
2022/10/06 11:22:59;;;;;;;6.32;1.48;;;18.90;99.90;;;;;;4971831;28;20089;-59
2022/10/06 11:25:39;;;;;;;5.93;1.45;;;19.30;99.90;;;;;;4974861;28;20034;-59
2022/10/06 11:28:19;;;;;;;8.10;1.40;;;19.60;99.90;;;;;;4975112;28;20035;-59
2022/10/06 11:31:21;;;;;;;5.32;0.65;;;19.70;99.90;;;;;;4975440;28;20026;-59
2022/10/06 11:33:51;;;;;;;7.35;1.25;;;19.60;99.90;;;;;;4971260;28;20125;-59
2022/10/06 11:36:40;;;;;;;8.95;0.73;;;19.60;99.90;;;;;;4969894;28;20023;-59
2022/10/06 11:39:33;;;;;;;7.68;0.90;;;19.70;99.90;;;;;;4969502;28;20066;-59
2022/10/06 11:42:14;;;;;;;7.63;0.85;;;19.20;99.90;;;;;;4967664;28;20517;-58
2022/10/06 11:44:45;;;;;;;2.50;1.05;;;19.50;99.90;;;;;;4973588;28;20074;-60
2022/10/06 11:47:18;;;;;;;5.45;1.40;;;20.10;99.90;;;;;;4971349;28;20434;-58
2022/10/06 11:49:51;;;;;;;6.93;0.88;;;20.40;99.90;;;;;;4968996;28;20101;-59
2022/10/06 11:52:16;;;;;;;3.22;1.05;;;20.00;99.90;;;;;;4969768;28;20019;-59
2022/10/06 11:54:51;;;;;;;5.28;1.40;;;20.20;99.90;;;;;;4968622;28;20035;-59
2022/10/06 11:57:25;;;;;;;7.30;1.50;;;20.30;99.90;;;;;;4971140;28;20047;-59
2022/10/06 12:00:03;;;;;;;3.58;1.52;;;20.90;99.90;;;;;;4964317;28;20483;-59
2022/10/06 12:02:29;;;;;;;4.60;1.20;;;20.60;99.90;;;;;;4962448;28;20031;-62
2022/10/06 12:05:17;;;;;;;4.72;0.95;;;20.90;99.90;;;;;;4971282;28;20142;-58
2022/10/06 12:07:55;;;;;;;6.30;1.27;;;20.30;99.90;;;;;;4967875;28;20031;-59
2022/10/06 12:10:27;;;;;;;5.25;1.30;;;20.60;99.90;;;;;;4975482;28;20149;-59
2022/10/06 12:13:11;;;;;;;4.35;0.70;;;19.70;99.90;;;;;;4968661;28;20038;-59
2022/10/06 12:15:47;;;;;;;5.35;1.42;;;20.10;99.90;;;;;;4974437;28;20090;-59
2022/10/06 12:18:23;;;;;;;5.72;1.15;;;20.50;99.90;;;;;;4969079;28;20031;-59
2022/10/06 12:21:05;;;;;;;2.53;0.52;;;21.10;99.90;;;;;;4971930;28;20070;-58
2022/10/06 12:23:52;;;;;;;5.20;0.75;;;20.80;99.90;;;;;;4965848;28;20039;-58
2022/10/06 12:26:32;;;;;;;3.42;0.70;;;20.80;99.90;;;;;;4961006;28;20027;-58
2022/10/06 12:29:25;;;;;;;4.82;1.13;;;20.90;99.90;;;;;;4970577;28;20072;-58
2022/10/06 12:32:13;;;;;;;3.08;0.80;;;20.70;99.90;;;;;;4959479;28;20317;-58
2022/10/06 12:35:02;;;;;;;8.50;1.90;;;21.30;99.90;;;;;;4974223;28;20057;-58
2022/10/06 12:37:27;;;;;;;5.63;0.98;;;21.10;99.90;;;;;;4976709;28;20034;-59
2022/10/06 12:40:31;;;;;;;4.10;0.63;;;21.60;99.90;;;;;;4974051;28;20046;-58
2022/10/06 12:43:09;;;;;;;7.38;0.82;;;21.90;98.40;;;;;;4967369;28;20088;-58
2022/10/06 12:45:38;;;;;;;2.88;0.85;;;22.10;98.60;;;;;;4969148;28;20473;-60
2022/10/06 12:48:08;;;;;;;5.82;0.95;;;22.60;97.80;;;;;;4973342;28;20440;-57
2022/10/06 12:50:36;;;;;;;4.93;1.30;;;22.20;97.80;;;;;;4970820;28;20022;-58
2022/10/06 12:53:10;;;;;;;5.30;1.30;;;21.70;99.20;;;;;;4967022;28;20043;-58
2022/10/06 12:55:48;;;;;;;8.35;1.73;;;21.90;98.80;;;;;;4967779;28;20055;-58
2022/10/06 12:58:25;;;;;;;4.60;0.90;;;22.30;97.60;;;;;;4970450;28;20133;-58
2022/10/06 13:00:51;;;;;;;4.88;1.58;;;22.30;97.00;;;;;;4970264;28;20094;-57
2022/10/06 13:03:23;;;;;;;4.80;1.00;;;22.50;97.50;;;;;;4978877;28;20026;-57
2022/10/06 13:05:53;;;;;;;1.73;0.60;;;21.90;97.70;;;;;;4966384;28;20422;-60
2022/10/06 13:08:28;;;;;;;3.40;1.02;;;22.20;97.60;;;;;;4972530;28;20122;-59
2022/10/06 13:11:16;;;;;;;5.65;1.70;;;22.20;96.80;;;;;;4968580;28;20031;-57
2022/10/06 13:13:55;;;;;;;5.93;1.15;;;22.10;96.60;;;;;;4958415;28;20033;-57
2022/10/06 13:16:30;;;;;;;5.05;1.00;;;22.50;96.70;;;;;;4970819;28;20049;-59
2022/10/06 13:18:58;;;;;;;6.03;1.42;;;22.30;96.90;;;;;;4969008;28;20105;-58
2022/10/06 13:21:28;;;;;;;2.33;0.82;;;22.00;97.70;;;;;;4968875;28;20033;-62
2022/10/06 13:23:54;;;;;;;6.78;1.30;;;21.70;97.80;;;;;;4967650;28;20067;-59